createdAt,value
2017-08-01T00:02:20.579Z,21.30
2017-08-01T00:07:23.773Z,21.10
2017-08-01T00:12:26.973Z,21.00
2017-08-01T00:17:30.916Z,21.10
2017-08-01T00:22:34.110Z,21.10
2017-08-01T00:27:37.280Z,21.10
2017-08-01T00:32:40.480Z,21.10
2017-08-01T00:37:43.654Z,21.30
2017-08-01T00:42:46.841Z,21.30
2017-08-01T00:47:50.412Z,21.30
2017-08-01T00:52:53.619Z,21.70
2017-08-01T00:57:56.791Z,21.90
2017-08-01T01:02:59.977Z,21.40
2017-08-01T01:08:03.538Z,21.10
2017-08-01T01:13:06.736Z,21.20
2017-08-01T01:18:09.929Z,21.20
2017-08-01T01:23:13.370Z,20.80
2017-08-01T01:28:16.609Z,19.60
2017-08-01T01:33:19.784Z,18.90
2017-08-01T01:38:22.967Z,18.60
2017-08-01T01:43:26.154Z,18.30
2017-08-01T01:48:29.353Z,18.10
2017-08-01T01:53:32.523Z,18.20
2017-08-01T01:58:35.719Z,18.20
2017-08-01T02:03:38.890Z,18.30
2017-08-01T02:08:42.079Z,18.30
2017-08-01T02:13:45.249Z,18.30
2017-08-01T02:18:49.199Z,18.30
2017-08-01T02:23:52.351Z,18.20
2017-08-01T02:28:55.534Z,18.30
2017-08-01T02:33:58.876Z,18.20
2017-08-01T02:39:02.053Z,18.20
2017-08-01T02:44:05.255Z,18.10
2017-08-01T02:49:08.414Z,18.20
2017-08-01T02:54:12.399Z,18.20
2017-08-01T02:59:15.570Z,18.20
2017-08-01T03:04:18.744Z,18.30
2017-08-01T03:09:21.918Z,18.40
2017-08-01T03:14:25.117Z,18.50
2017-08-01T03:19:28.276Z,18.60
2017-08-01T03:24:32.265Z,18.50
2017-08-01T03:29:35.449Z,18.40
2017-08-01T03:34:38.638Z,18.40
2017-08-01T03:39:41.820Z,18.20
2017-08-01T03:44:45.776Z,18.10
2017-08-01T03:49:49.075Z,18.10
2017-08-01T03:54:52.993Z,18.30
2017-08-01T03:59:56.193Z,18.20
2017-08-01T04:04:59.406Z,18.20
2017-08-01T04:10:02.617Z,18.20
2017-08-01T04:15:05.817Z,18.10
2017-08-01T04:20:08.995Z,18.00
2017-08-01T04:25:12.188Z,18.00
2017-08-01T04:30:15.374Z,18.00
2017-08-01T04:35:18.583Z,17.90
2017-08-01T04:40:21.772Z,17.90
2017-08-01T04:45:24.941Z,17.90
2017-08-01T04:50:28.881Z,17.90
2017-08-01T04:55:32.082Z,17.90
2017-08-01T05:00:35.956Z,18.00
2017-08-01T05:05:39.214Z,18.20
2017-08-01T05:10:43.160Z,18.30
2017-08-01T05:15:46.357Z,18.30
2017-08-01T05:20:49.552Z,18.40
2017-08-01T05:25:52.744Z,18.80
2017-08-01T05:30:56.691Z,20.00
2017-08-01T05:35:59.900Z,20.10
2017-08-01T05:41:03.082Z,20.30
2017-08-01T05:46:07.029Z,21.80
2017-08-01T05:51:11.177Z,21.70
2017-08-01T05:56:14.357Z,21.90
2017-08-01T06:01:17.570Z,22.40
2017-08-01T06:06:21.502Z,23.30
2017-08-01T06:11:24.697Z,23.20
2017-08-01T06:16:27.876Z,24.10
2017-08-01T06:21:31.837Z,24.40
2017-08-01T06:26:35.030Z,24.40
2017-08-01T06:31:38.214Z,24.20
2017-08-01T06:36:42.161Z,24.80
2017-08-01T06:41:45.349Z,24.80
2017-08-01T06:46:49.350Z,25.90
2017-08-01T06:51:52.537Z,25.90
2017-08-01T06:56:55.725Z,25.20
2017-08-01T07:01:58.943Z,26.40
2017-08-01T07:07:02.123Z,26.20
2017-08-01T07:12:05.303Z,25.90
2017-08-01T07:17:08.493Z,26.70
2017-08-01T07:22:11.707Z,26.70
2017-08-01T07:27:14.882Z,27.00
2017-08-01T07:32:18.086Z,26.40
2017-08-01T07:37:22.349Z,26.30
2017-08-01T07:42:25.584Z,26.00
2017-08-01T07:47:29.543Z,23.80
2017-08-01T07:52:32.856Z,23.70
2017-08-01T07:57:36.039Z,23.20
2017-08-01T08:02:39.236Z,23.00
2017-08-01T08:07:43.222Z,23.20
2017-08-01T08:12:46.430Z,23.20
2017-08-01T08:17:49.614Z,23.40
2017-08-01T08:22:52.819Z,23.20
2017-08-01T08:27:56.112Z,23.60
2017-08-01T08:32:59.310Z,24.00
2017-08-01T08:38:02.473Z,23.40
2017-08-01T08:43:05.923Z,23.00
2017-08-01T08:48:09.280Z,22.90
2017-08-01T08:53:12.488Z,23.40
2017-08-01T08:58:15.705Z,23.90
2017-08-01T09:03:18.877Z,24.00
2017-08-01T09:08:22.063Z,24.00
2017-08-01T09:13:25.251Z,24.00
2017-08-01T09:18:29.202Z,23.70
2017-08-01T09:23:32.411Z,23.70
2017-08-01T09:28:36.137Z,24.10
2017-08-01T09:33:39.358Z,24.10
2017-08-01T09:38:42.590Z,24.00
2017-08-01T09:43:45.754Z,24.30
2017-08-01T09:48:48.934Z,24.10
2017-08-01T09:53:52.142Z,24.20
2017-08-01T09:58:55.341Z,24.30
2017-08-01T10:03:59.292Z,26.90
2017-08-01T10:09:02.485Z,26.90
2017-08-01T10:14:05.710Z,27.60
2017-08-01T10:19:08.895Z,27.00
2017-08-01T10:24:12.234Z,26.80
2017-08-01T10:29:15.474Z,26.60
2017-08-01T10:34:18.641Z,26.20
2017-08-01T10:39:21.884Z,26.10
2017-08-01T10:44:25.133Z,25.60
2017-08-01T10:49:29.057Z,26.20
2017-08-01T10:54:32.382Z,26.20
2017-08-01T10:59:35.585Z,25.90
2017-08-01T11:04:38.768Z,25.80
2017-08-01T11:09:43.178Z,25.00
2017-08-01T11:14:46.377Z,25.00
2017-08-01T11:19:49.772Z,24.80
2017-08-01T11:24:52.961Z,24.90
2017-08-01T11:29:56.183Z,24.90
2017-08-01T11:34:59.373Z,25.30
2017-08-01T11:40:02.566Z,25.90
2017-08-01T11:45:05.768Z,26.00
2017-08-01T11:50:08.991Z,26.00
2017-08-01T11:55:12.194Z,26.80
2017-08-01T12:00:15.370Z,26.60
2017-08-01T12:05:19.411Z,25.70
2017-08-01T12:10:22.609Z,25.70
2017-08-01T12:15:26.586Z,25.70
2017-08-01T12:20:29.781Z,25.70
2017-08-01T12:25:33.199Z,26.00
2017-08-01T12:30:36.411Z,25.90
2017-08-01T12:35:39.677Z,26.50
2017-08-01T12:40:43.799Z,26.10
2017-08-01T12:45:47.866Z,26.80
2017-08-01T12:50:51.148Z,26.80
2017-08-01T12:55:54.357Z,26.10
2017-08-01T13:00:57.558Z,25.20
2017-08-01T13:06:00.828Z,24.90
2017-08-01T13:11:04.254Z,24.50
2017-08-01T13:16:08.223Z,24.30
2017-08-01T13:21:11.511Z,24.30
2017-08-01T13:26:14.887Z,24.00
2017-08-01T13:31:18.232Z,23.70
2017-08-01T13:36:21.438Z,23.40
2017-08-01T13:41:24.632Z,23.40
2017-08-01T13:46:28.625Z,23.30
2017-08-01T13:51:31.828Z,23.30
2017-08-01T13:56:34.986Z,23.40
2017-08-01T14:01:38.187Z,23.50
2017-08-01T14:06:41.390Z,23.60
2017-08-01T14:11:44.590Z,23.60
2017-08-01T14:16:48.541Z,23.40
2017-08-01T14:21:51.866Z,23.40
2017-08-01T14:26:55.056Z,22.80
2017-08-01T14:31:58.242Z,22.70
2017-08-01T14:37:02.208Z,24.70
2017-08-01T14:42:05.716Z,24.70
2017-08-01T14:47:08.930Z,24.30
2017-08-01T14:52:12.337Z,24.70
2017-08-01T14:57:15.560Z,23.80
2017-08-01T15:02:19.090Z,23.10
2017-08-01T15:07:23.006Z,24.50
2017-08-01T15:12:27.001Z,24.40
2017-08-01T15:17:30.349Z,24.00
2017-08-01T15:22:33.616Z,23.90
2017-08-01T15:27:36.842Z,23.80
2017-08-01T15:32:40.027Z,23.60
2017-08-01T15:37:43.299Z,23.70
2017-08-01T15:42:47.347Z,24.00
2017-08-01T15:47:50.545Z,24.00
2017-08-01T15:52:54.745Z,23.80
2017-08-01T15:57:58.261Z,23.80
2017-08-01T16:03:01.477Z,24.00
2017-08-01T16:08:04.653Z,24.70
2017-08-01T16:13:08.002Z,25.40
2017-08-01T16:18:12.075Z,25.90
2017-08-01T16:23:15.281Z,25.80
2017-08-01T16:28:18.488Z,23.90
2017-08-01T16:33:21.692Z,23.80
2017-08-01T16:38:25.024Z,25.00
2017-08-01T16:43:28.214Z,26.40
2017-08-01T16:48:31.555Z,26.40
2017-08-01T16:53:34.766Z,25.40
2017-08-01T16:58:37.999Z,26.20
2017-08-01T17:03:41.985Z,26.10
2017-08-01T17:08:45.184Z,26.10
2017-08-01T17:13:48.371Z,26.50
2017-08-01T17:18:51.569Z,26.30
2017-08-01T17:23:55.783Z,26.20
2017-08-01T17:28:59.775Z,25.50
2017-08-01T17:34:02.909Z,25.50
2017-08-01T17:39:06.096Z,25.30
2017-08-01T17:44:10.108Z,25.20
2017-08-01T17:49:13.312Z,25.10
2017-08-01T17:54:16.448Z,25.10
2017-08-01T17:59:19.654Z,25.00
2017-08-01T18:04:23.587Z,24.90
2017-08-01T18:09:26.995Z,24.90
2017-08-01T18:14:31.412Z,24.70
2017-08-01T18:19:34.948Z,24.70
2017-08-01T18:24:38.313Z,24.50
2017-08-01T18:29:41.538Z,24.20
2017-08-01T18:34:44.977Z,24.10
2017-08-01T18:39:49.117Z,24.00
2017-08-01T18:44:52.575Z,24.10
2017-08-01T18:49:55.827Z,23.80
2017-08-01T18:54:59.790Z,24.00
2017-08-01T19:00:03.049Z,24.00
2017-08-01T19:05:07.061Z,23.80
2017-08-01T19:10:10.263Z,23.70
2017-08-01T19:15:14.838Z,23.60
2017-08-01T19:20:18.800Z,23.80
2017-08-01T19:25:22.047Z,23.80
2017-08-01T19:30:25.992Z,23.60
2017-08-01T19:35:29.206Z,23.60
2017-08-01T19:40:32.457Z,24.90
2017-08-01T19:45:35.730Z,26.20
2017-08-01T19:50:38.915Z,27.00
2017-08-01T19:55:42.881Z,22.90
2017-08-01T20:00:46.077Z,22.90
2017-08-01T20:05:49.279Z,22.20
2017-08-01T20:10:52.560Z,22.00
2017-08-01T20:15:55.979Z,21.80
2017-08-01T20:20:59.190Z,21.60
2017-08-01T20:26:02.401Z,22.00
2017-08-01T20:31:06.416Z,23.10
2017-08-01T20:36:09.735Z,23.00
2017-08-01T20:41:12.953Z,22.30
2017-08-01T20:46:16.151Z,22.00
2017-08-01T20:51:19.411Z,22.00
2017-08-01T20:56:22.798Z,22.60
2017-08-01T21:01:25.996Z,22.20
2017-08-01T21:06:29.284Z,22.00
2017-08-01T21:11:32.514Z,21.70
2017-08-01T21:16:35.721Z,21.70
2017-08-01T21:21:39.044Z,21.70
2017-08-01T21:26:42.580Z,21.40
2017-08-01T21:31:45.837Z,21.50
2017-08-01T21:36:49.076Z,21.30
2017-08-01T21:41:52.540Z,21.10
2017-08-01T21:46:57.052Z,21.00
2017-08-01T21:52:01.144Z,21.00
2017-08-01T21:57:04.335Z,20.90
2017-08-01T22:02:07.538Z,20.90
2017-08-01T22:07:11.373Z,20.80
2017-08-01T22:12:14.554Z,20.90
2017-08-01T22:17:18.341Z,21.10
2017-08-01T22:22:21.723Z,21.10
2017-08-01T22:27:24.933Z,22.00
2017-08-01T22:32:28.142Z,24.60
2017-08-01T22:37:31.320Z,22.30
2017-08-01T22:42:34.509Z,21.40
2017-08-01T22:47:37.709Z,21.40
2017-08-01T22:52:41.666Z,21.50
2017-08-01T22:57:44.869Z,21.50
2017-08-01T23:02:48.045Z,21.50
2017-08-01T23:07:51.952Z,21.80
2017-08-01T23:12:55.903Z,21.60
2017-08-01T23:17:59.077Z,21.60
2017-08-01T23:23:03.038Z,21.20
2017-08-01T23:28:06.278Z,21.10
2017-08-01T23:33:09.446Z,21.00
2017-08-01T23:38:12.675Z,20.90
2017-08-01T23:43:15.882Z,20.70
2017-08-01T23:48:19.212Z,20.60
2017-08-01T23:53:22.613Z,20.50
2017-08-01T23:58:25.807Z,20.60
